Joo Do — D8CL — position and weather

sailwx.info

Track history (hours):
 
Tides and Currents Weather Stations Pressure Air Temp Water Temp Dewpoint Dewpoint Depression Visibility Wind Speed Wind Dir Waves Ship Positions

Joo Do

Last reported at 2018-Jul-04 20:01 UTC. Time now 2018-Jul-23 15:11 UTC.
Position N 00°51' E 105°06'.
Warning: this ship's position is 18 days out of date.

Length 178 m; draft 8.6 m.

Type: Cargo ship. MMSI: 441726000.

Date/timePositionNaut miles runAvg speedWind from/ knotsBaromVisibWave heightAir tempDewpointWater temp
2018-Jul-04 20:01N 00°51' E 105°06'112.7
2018-Jul-04 19:55N 00°52' E 105°05'2712.7
2018-Jul-04 17:45N 01°14' E 104°48'413.3
2018-Jul-04 17:28N 01°17' E 104°46'612.3
2018-Jul-04 16:58N 01°20' E 104°41'712.7
2018-Jul-04 16:27N 01°21' E 104°34'612.5
2018-Jul-04 15:58N 01°22' E 104°28'612.1
2018-Jul-04 15:30N 01°20' E 104°23'713.1
2018-Jul-04 14:59N 01°17' E 104°17'613.2
2018-Jul-04 14:30N 01°16' E 104°11'712.8
2018-Jul-04 14:00N 01°15' E 104°04'612.8
2018-Jul-04 13:30N 01°14' E 103°58'612.6
2018-Jul-04 12:59N 01°11' E 103°52'612.8
2018-Jul-04 12:30N 01°08' E 103°47'611.9
2018-Jul-04 12:00N 01°04' E 103°42'611.0
2018-Jul-04 11:28N 01°04' E 103°36'612.6
2018-Jul-04 10:58N 01°07' E 103°31'612.3
2018-Jul-04 10:30N 01°10' E 103°26'713.6
2018-Jul-04 09:59N 01°15' E 103°21'613.2
2018-Jul-04 09:30N 01°19' E 103°16'9 0.2
2018-Jul-02 11:35N 01°27' E 103°12'613.4
2018-Jul-02 11:07N 01°22' E 103°16'213.3
2018-Jul-02 10:56N 01°21' E 103°18'613.5
2018-Jul-02 10:29N 01°17' E 103°23'510.8
2018-Jul-02 10:00N 01°14' E 103°27'4 7.1
2018-Jul-02 09:30N 01°13' E 103°30'3 6.6
2018-Jul-02 08:59N 01°12' E 103°34'3 7.1
2018-Jul-02 08:30N 01°11' E 103°37'4 8.6
2018-Jul-02 08:00N 01°10' E 103°41'5 9.8
2018-Jul-02 07:30N 01°09' E 103°46'510.3
2018-Jul-02 07:00N 01°11' E 103°51'510.2
2018-Jul-02 06:30N 01°14' E 103°55'610.7
2018-Jul-02 05:59N 01°16' E 104°00'510.5
2018-Jul-02 05:30N 01°17' E 104°05'3 5.2
2018-Jul-02 05:00N 01°19' E 104°05'4 6.8
2018-Jul-02 04:28N 01°22' E 104°02'4 7.3
2018-Jul-02 03:58N 01°24' E 103°59'4 8.4
2018-Jul-02 03:29N 01°25' E 103°56'1 2.4
2018-Jul-02 03:00N 01°26' E 103°55'0 0.0
2018-Jul-02 02:20N 01°26' E 103°55'0 0.0
2018-Jul-02 01:56N 01°26' E 103°55'0 0.0
2018-Jul-02 01:26N 01°26' E 103°55'0 0.0
2018-Jul-02 00:43N 01°26' E 103°55'0 0.0
2018-Jul-02 00:18N 01°26' E 103°55'0 0.0
2018-Jul-01 23:48N 01°26' E 103°55'0 0.0
2018-Jul-01 23:21N 01°26' E 103°55'0 0.0
2018-Jul-01 22:57N 01°26' E 103°55'0 0.0
2018-Jul-01 22:24N 01°26' E 103°55'0 0.0
2018-Jul-01 21:47N 01°26' E 103°55'0 0.0
2018-Jul-01 21:24N 01°26' E 103°55'0 0.0
2018-Jul-01 20:51N 01°26' E 103°55'0 0.0
2018-Jul-01 20:26N 01°26' E 103°55'0 0.0
2018-Jul-01 19:31N 01°26' E 103°55'0 0.0
2018-Jul-01 19:24N 01°26' E 103°55'0 0.0
2018-Jul-01 18:49N 01°26' E 103°55'0 0.0
2018-Jul-01 18:26N 01°26' E 103°55'0 0.0
2018-Jul-01 17:38N 01°26' E 103°55'0 0.0
2018-Jul-01 17:30N 01°26' E 103°55'0 0.0
2018-Jul-01 16:59N 01°26' E 103°55'0 0.0
2018-Jul-01 16:17N 01°26' E 103°55'0 0.0
2018-Jul-01 15:46N 01°26' E 103°55'0 0.0
2018-Jul-01 15:30N 01°26' E 103°55'0 0.0
2018-Jul-01 14:51N 01°26' E 103°55'0 0.0
2018-Jul-01 14:27N 01°26' E 103°55'0 0.0
2018-Jul-01 13:07N 01°26' E 103°55'0 0.0
2018-Jul-01 12:51N 01°26' E 103°55'0 0.0
2018-Jul-01 12:20N 01°26' E 103°55'0 0.0
2018-Jul-01 11:56N 01°26' E 103°55'0 0.0
2018-Jul-01 11:29N 01°26' E 103°55'0 0.0
2018-Jul-01 10:41N 01°26' E 103°55'0 0.0
2018-Jul-01 10:29N 01°26' E 103°55'0 0.0
2018-Jul-01 09:31N 01°26' E 103°55'0 0.0
2018-Jul-01 09:30N 01°26' E 103°55'0 0.0
2018-Jul-01 08:58N 01°26' E 103°55'0 0.0
2018-Jul-01 08:28N 01°26' E 103°55'0 0.0
2018-Jul-01 07:59N 01°26' E 103°55'1 1.2
2018-Jul-01 07:30N 01°25' E 103°55'3 6.5
2018-Jul-01 06:58N 01°24' E 103°58'4 8.2
2018-Jul-01 06:30N 01°22' E 104°02'4 7.6
2018-Jul-01 06:01N 01°20' E 104°05'2 4.5
2018-Jul-01 05:29N 01°18' E 104°06'4 7.9
2018-Jul-01 05:00N 01°17' E 104°10'4 7.2
2018-Jul-01 04:29N 01°18' E 104°14'4 8.7
2018-Jul-01 03:59N 01°19' E 104°18'5 9.2
2018-Jul-01 03:30N 01°21' E 104°22'  
Track history (hours):
 
Tides and Currents Weather Stations Pressure Air Temp Water Temp Dewpoint Dewpoint Depression Visibility Wind Speed Wind Dir Waves Ship Positions

Joo Do

Last reported at 2018-Jul-04 20:01 UTC. Time now 2018-Jul-23 15:11 UTC.
Position N 00°51' E 105°06'.
Warning: this ship's position is 18 days out of date.

Length 178 m; draft 8.6 m.

Type: Cargo ship. MMSI: 441726000.

Date/timePositionNaut miles runAvg speedWind from/ knotsBaromVisibWave heightAir tempDewpointWater temp
2018-Jul-04 20:01N 00°51' E 105°06'112.7
2018-Jul-04 19:55N 00°52' E 105°05'2712.7
2018-Jul-04 17:45N 01°14' E 104°48'413.3
2018-Jul-04 17:28N 01°17' E 104°46'612.3
2018-Jul-04 16:58N 01°20' E 104°41'712.7
2018-Jul-04 16:27N 01°21' E 104°34'612.5
2018-Jul-04 15:58N 01°22' E 104°28'612.1
2018-Jul-04 15:30N 01°20' E 104°23'713.1
2018-Jul-04 14:59N 01°17' E 104°17'613.2
2018-Jul-04 14:30N 01°16' E 104°11'712.8
2018-Jul-04 14:00N 01°15' E 104°04'612.8
2018-Jul-04 13:30N 01°14' E 103°58'612.6
2018-Jul-04 12:59N 01°11' E 103°52'612.8
2018-Jul-04 12:30N 01°08' E 103°47'611.9
2018-Jul-04 12:00N 01°04' E 103°42'611.0
2018-Jul-04 11:28N 01°04' E 103°36'612.6
2018-Jul-04 10:58N 01°07' E 103°31'612.3
2018-Jul-04 10:30N 01°10' E 103°26'713.6
2018-Jul-04 09:59N 01°15' E 103°21'613.2
2018-Jul-04 09:30N 01°19' E 103°16'9 0.2
2018-Jul-02 11:35N 01°27' E 103°12'613.4
2018-Jul-02 11:07N 01°22' E 103°16'213.3
2018-Jul-02 10:56N 01°21' E 103°18'613.5
2018-Jul-02 10:29N 01°17' E 103°23'510.8
2018-Jul-02 10:00N 01°14' E 103°27'4 7.1
2018-Jul-02 09:30N 01°13' E 103°30'3 6.6
2018-Jul-02 08:59N 01°12' E 103°34'3 7.1
2018-Jul-02 08:30N 01°11' E 103°37'4 8.6
2018-Jul-02 08:00N 01°10' E 103°41'5 9.8
2018-Jul-02 07:30N 01°09' E 103°46'510.3
2018-Jul-02 07:00N 01°11' E 103°51'510.2
2018-Jul-02 06:30N 01°14' E 103°55'610.7
2018-Jul-02 05:59N 01°16' E 104°00'510.5
2018-Jul-02 05:30N 01°17' E 104°05'3 5.2
2018-Jul-02 05:00N 01°19' E 104°05'4 6.8
2018-Jul-02 04:28N 01°22' E 104°02'4 7.3
2018-Jul-02 03:58N 01°24' E 103°59'4 8.4
2018-Jul-02 03:29N 01°25' E 103°56'1 2.4
2018-Jul-02 03:00N 01°26' E 103°55'0 0.0
2018-Jul-02 02:20N 01°26' E 103°55'0 0.0
2018-Jul-02 01:56N 01°26' E 103°55'0 0.0
2018-Jul-02 01:26N 01°26' E 103°55'0 0.0
2018-Jul-02 00:43N 01°26' E 103°55'0 0.0
2018-Jul-02 00:18N 01°26' E 103°55'0 0.0
2018-Jul-01 23:48N 01°26' E 103°55'0 0.0
2018-Jul-01 23:21N 01°26' E 103°55'0 0.0
2018-Jul-01 22:57N 01°26' E 103°55'0 0.0
2018-Jul-01 22:24N 01°26' E 103°55'0 0.0
2018-Jul-01 21:47N 01°26' E 103°55'0 0.0
2018-Jul-01 21:24N 01°26' E 103°55'0 0.0
2018-Jul-01 20:51N 01°26' E 103°55'0 0.0
2018-Jul-01 20:26N 01°26' E 103°55'0 0.0
2018-Jul-01 19:31N 01°26' E 103°55'0 0.0
2018-Jul-01 19:24N 01°26' E 103°55'0 0.0
2018-Jul-01 18:49N 01°26' E 103°55'0 0.0
2018-Jul-01 18:26N 01°26' E 103°55'0 0.0
2018-Jul-01 17:38N 01°26' E 103°55'0 0.0
2018-Jul-01 17:30N 01°26' E 103°55'0 0.0
2018-Jul-01 16:59N 01°26' E 103°55'0 0.0
2018-Jul-01 16:17N 01°26' E 103°55'0 0.0
2018-Jul-01 15:46N 01°26' E 103°55'0 0.0
2018-Jul-01 15:30N 01°26' E 103°55'0 0.0
2018-Jul-01 14:51N 01°26' E 103°55'0 0.0
2018-Jul-01 14:27N 01°26' E 103°55'0 0.0
2018-Jul-01 13:07N 01°26' E 103°55'0 0.0
2018-Jul-01 12:51N 01°26' E 103°55'0 0.0
2018-Jul-01 12:20N 01°26' E 103°55'0 0.0
2018-Jul-01 11:56N 01°26' E 103°55'0 0.0
2018-Jul-01 11:29N 01°26' E 103°55'0 0.0
2018-Jul-01 10:41N 01°26' E 103°55'0 0.0
2018-Jul-01 10:29N 01°26' E 103°55'0 0.0
2018-Jul-01 09:31N 01°26' E 103°55'0 0.0
2018-Jul-01 09:30N 01°26' E 103°55'0 0.0
2018-Jul-01 08:58N 01°26' E 103°55'0 0.0
2018-Jul-01 08:28N 01°26' E 103°55'0 0.0
2018-Jul-01 07:59N 01°26' E 103°55'1 1.2
2018-Jul-01 07:30N 01°25' E 103°55'3 6.5
2018-Jul-01 06:58N 01°24' E 103°58'4 8.2
2018-Jul-01 06:30N 01°22' E 104°02'4 7.6
2018-Jul-01 06:01N 01°20' E 104°05'2 4.5
2018-Jul-01 05:29N 01°18' E 104°06'4 7.9
2018-Jul-01 05:00N 01°17' E 104°10'4 7.2
2018-Jul-01 04:29N 01°18' E 104°14'4 8.7
2018-Jul-01 03:59N 01°19' E 104°18'5 9.2
2018-Jul-01 03:30N 01°21' E 104°22'  

Dump ship's entire track history